createdAt,value
2022-08-11T00:00:00.895Z,97064.44
2022-08-11T00:02:35.524Z,97061.75
2022-08-11T00:05:09.081Z,97052.09
2022-08-11T00:07:45.338Z,97059.34
2022-08-11T00:10:16.439Z,97053.72
2022-08-11T00:12:54.131Z,97056.13
2022-08-11T00:15:22.780Z,97053.75
2022-08-11T00:17:58.442Z,97055.59
2022-08-11T00:20:33.159Z,97056.66
2022-08-11T00:23:07.616Z,97059.09
2022-08-11T00:25:41.581Z,97049.72
2022-08-11T00:28:27.030Z,97056.16
2022-08-11T00:30:57.070Z,97055.09
2022-08-11T00:33:41.070Z,97058.03
2022-08-11T00:36:18.950Z,97058.56
2022-08-11T00:38:54.683Z,97059.38
2022-08-11T00:41:35.364Z,97062.59
2022-08-11T00:44:37.629Z,97057.19
2022-08-11T00:47:22.439Z,97059.34
2022-08-11T00:50:05.790Z,97064.44
2022-08-11T00:53:13.549Z,97059.34
2022-08-11T00:56:34.981Z,97051.84
2022-08-11T00:59:58.045Z,97047.00
2022-08-11T01:03:09.912Z,97047.56
2022-08-11T01:06:13.054Z,97047.56
2022-08-11T01:09:25.082Z,97047.00
2022-08-11T01:12:28.973Z,97053.44
2022-08-11T01:15:43.584Z,97051.28
2022-08-11T01:19:16.089Z,97053.97
2022-08-11T01:22:24.481Z,97056.63
2022-08-11T01:25:57.301Z,97055.25
2022-08-11T01:29:17.306Z,97046.91
2022-08-11T01:32:27.684Z,97058.38
2022-08-11T01:36:07.563Z,97049.59
2022-08-11T01:39:11.876Z,97054.16
2022-08-11T01:42:45.538Z,97049.63
2022-08-11T01:45:35.328Z,97049.66
2022-08-11T01:48:13.549Z,97048.88
2022-08-11T01:51:16.922Z,97045.91
2022-08-11T01:53:57.137Z,97038.44
2022-08-11T01:56:50.809Z,97044.31
2022-08-11T01:59:25.798Z,97039.22
2022-08-11T02:02:45.919Z,97037.63
2022-08-11T02:05:42.332Z,97036.00
2022-08-11T02:08:33.242Z,97028.25
2022-08-11T02:11:35.570Z,97027.44
2022-08-11T02:14:25.609Z,97026.59
2022-08-11T02:17:14.992Z,97026.06
2022-08-11T02:20:15.095Z,97020.19
2022-08-11T02:23:13.238Z,97019.88
2022-08-11T02:26:10.121Z,97027.66
2022-08-11T02:28:54.211Z,97020.41
2022-08-11T02:32:23.970Z,97016.63
2022-08-11T02:34:59.899Z,97025.97
2022-08-11T02:37:45.276Z,97033.41
2022-08-11T02:40:25.970Z,97026.97
2022-08-11T02:43:12.356Z,97016.84
2022-08-11T02:45:59.459Z,97026.47
2022-08-11T02:48:59.094Z,97027.03
2022-08-11T02:51:38.555Z,97030.47
2022-08-11T02:54:15.987Z,97030.44
2022-08-11T02:56:53.162Z,97034.47
2022-08-11T02:59:51.523Z,97035.81
2022-08-11T03:02:41.153Z,97033.41
2022-08-11T03:05:25.060Z,97032.84
2022-08-11T03:08:09.500Z,97033.91
2022-08-11T03:11:10.329Z,97029.38
2022-08-11T03:14:04.783Z,97023.97
2022-08-11T03:16:48.315Z,97030.03
2022-08-11T03:19:27.116Z,97017.72
2022-08-11T03:22:09.244Z,97026.50
2022-08-11T03:24:56.996Z,97032.84
2022-08-11T03:27:47.833Z,97031.41
2022-08-11T03:30:20.591Z,97030.53
2022-08-11T03:33:26.546Z,97033.44
2022-08-11T03:36:10.041Z,97037.19
2022-08-11T03:39:00.882Z,97039.75
2022-08-11T03:42:04.463Z,97047.09
2022-08-11T03:44:51.546Z,97044.38
2022-08-11T03:47:53.491Z,97047.56
2022-08-11T03:50:53.087Z,97052.78
2022-08-11T03:53:45.475Z,97058.91
2022-08-11T03:57:18.162Z,97053.25
2022-08-11T04:00:18.295Z,97054.56
2022-08-11T04:03:38.478Z,97047.13
2022-08-11T04:07:00.057Z,97046.78
2022-08-11T04:10:25.014Z,97044.66
2022-08-11T04:13:41.054Z,97042.22
2022-08-11T04:16:31.762Z,97045.97
2022-08-11T04:19:54.470Z,97044.50
2022-08-11T04:22:55.249Z,97045.81
2022-08-11T04:26:22.493Z,97044.81
2022-08-11T04:29:09.693Z,97040.78
2022-08-11T04:31:52.733Z,97039.59
2022-08-11T04:34:59.984Z,97041.28
2022-08-11T04:37:59.355Z,97041.69
2022-08-11T04:40:55.920Z,97052.88
2022-08-11T04:44:27.365Z,97057.09
2022-08-11T04:48:03.891Z,97054.44
2022-08-11T04:51:17.151Z,97047.47
2022-08-11T04:54:19.372Z,97045.38
2022-08-11T04:57:07.034Z,97049.88
2022-08-11T05:00:11.870Z,97054.91
2022-08-11T05:03:36.414Z,97056.97
2022-08-11T05:07:09.326Z,97058.81
2022-08-11T05:10:04.049Z,97061.56
2022-08-11T05:12:42.222Z,97064.03
2022-08-11T05:15:51.415Z,97066.72
2022-08-11T05:18:42.764Z,97063.56
2022-08-11T05:21:44.325Z,97062.00
2022-08-11T05:24:48.601Z,97064.72
2022-08-11T05:27:38.110Z,97063.72
2022-08-11T05:30:26.743Z,97053.19
2022-08-11T05:33:24.201Z,97052.72
2022-08-11T05:36:03.456Z,97059.78
2022-08-11T05:38:54.914Z,97056.16
2022-08-11T05:41:44.292Z,97051.41
2022-08-11T05:44:38.218Z,97060.31
2022-08-11T05:47:24.989Z,97059.03
2022-08-11T05:50:13.511Z,97061.22
2022-08-11T05:53:09.124Z,97062.72
2022-08-11T05:56:03.001Z,97061.78
2022-08-11T05:58:41.303Z,97058.47
2022-08-11T06:01:14.206Z,97059.56
2022-08-11T06:04:08.939Z,97059.16
2022-08-11T06:06:45.210Z,97068.03
2022-08-11T06:09:14.704Z,97061.41
2022-08-11T06:11:45.125Z,97053.47
2022-08-11T06:14:15.907Z,97068.44
2022-08-11T06:16:50.018Z,97054.09
2022-08-11T06:19:23.055Z,97058.72
2022-08-11T06:21:53.146Z,97056.38
2022-08-11T06:24:21.442Z,97062.25
2022-08-11T06:29:54.446Z,97064.72
2022-08-11T06:32:30.389Z,97060.47
2022-08-11T06:35:19.805Z,97069.56
2022-08-11T06:38:03.558Z,97067.22
2022-08-11T06:40:39.555Z,97064.00
2022-08-11T06:43:19.536Z,97068.31
2022-08-11T06:46:03.077Z,97062.97
2022-08-11T06:48:35.003Z,97062.97
2022-08-11T06:51:12.378Z,97066.75
2022-08-11T06:54:03.708Z,97065.72
2022-08-11T06:57:28.235Z,97065.44
2022-08-11T07:00:02.525Z,97062.28
2022-08-11T07:02:35.187Z,97063.09
2022-08-11T07:05:13.505Z,97066.28
2022-08-11T07:08:44.655Z,97065.25
2022-08-11T07:12:02.625Z,97067.94
2022-08-11T07:14:50.923Z,97064.19
2022-08-11T07:17:23.471Z,97067.94
2022-08-11T07:20:14.210Z,97069.03
2022-08-11T07:23:14.899Z,97075.47
2022-08-11T07:26:03.588Z,97060.75
2022-08-11T07:28:49.184Z,97068.50
2022-08-11T07:31:23.342Z,97066.88
2022-08-11T07:34:06.462Z,97069.03
2022-08-11T07:36:41.912Z,97059.09
2022-08-11T07:39:18.863Z,97058.28
2022-08-11T07:41:48.263Z,97060.69
2022-08-11T07:44:17.420Z,97055.53
2022-08-11T07:47:09.310Z,97050.94
2022-08-11T07:49:58.458Z,97045.06
2022-08-11T07:52:32.630Z,97049.59
2022-08-11T07:55:08.515Z,97049.31
2022-08-11T07:58:14.509Z,97044.38
2022-08-11T08:01:10.669Z,97037.13
2022-08-11T08:04:07.471Z,97024.72
2022-08-11T08:06:55.333Z,97035.09
2022-08-11T08:09:42.741Z,97040.16
2022-08-11T08:12:30.905Z,97036.72
2022-08-11T08:15:17.476Z,97041.63
2022-08-11T08:18:20.449Z,97043.81
2022-08-11T08:20:46.327Z,97041.53
2022-08-11T08:23:14.782Z,97039.16
2022-08-11T08:25:45.444Z,97045.69
2022-08-11T08:28:21.580Z,97045.69
2022-08-11T08:30:51.709Z,97052.38
2022-08-11T08:33:23.252Z,97046.97
2022-08-11T08:36:11.417Z,97044.50
2022-08-11T08:38:42.875Z,97048.50
2022-08-11T08:41:13.215Z,97047.53
2022-08-11T08:43:50.024Z,97049.06
2022-08-11T08:46:28.872Z,97047.31
2022-08-11T08:49:01.329Z,97045.94
2022-08-11T08:52:01.346Z,97048.63
2022-08-11T08:54:31.523Z,97041.25
2022-08-11T08:57:05.312Z,97045.13
2022-08-11T08:59:48.733Z,97042.53
2022-08-11T09:02:33.471Z,97037.34
2022-08-11T09:05:04.754Z,97052.75
2022-08-11T09:07:39.585Z,97040.22
2022-08-11T09:10:10.729Z,97051.91
2022-08-11T09:12:43.066Z,97047.75
2022-08-11T09:15:19.288Z,97052.75
2022-08-11T09:17:50.154Z,97039.25
2022-08-11T09:20:23.830Z,97047.34
2022-08-11T09:26:21.015Z,97038.25
2022-08-11T09:28:50.202Z,97050.56
2022-08-11T09:31:22.865Z,97055.44
2022-08-11T09:33:55.906Z,97038.28
2022-08-11T09:36:41.973Z,97035.59
2022-08-11T09:39:31.413Z,97041.34
2022-08-11T09:42:03.290Z,97045.47
2022-08-11T09:44:49.580Z,97044.78
2022-08-11T09:47:24.206Z,97041.50
2022-08-11T09:49:56.202Z,97046.19
2022-08-11T09:52:25.685Z,97050.19
2022-08-11T09:54:55.647Z,97049.06
2022-08-11T09:57:42.186Z,97035.31
2022-08-11T10:00:15.276Z,97029.84
2022-08-11T10:02:49.438Z,97040.44
2022-08-11T10:05:38.194Z,97029.31
2022-08-11T10:08:08.325Z,97031.91
2022-08-11T10:10:39.572Z,97030.88
2022-08-11T10:14:30.277Z,97035.41
2022-08-11T10:16:15.184Z,97033.63
2022-08-11T10:18:52.808Z,97041.59
2022-08-11T10:21:30.193Z,97015.56
2022-08-11T10:24:19.726Z,97024.38
2022-08-11T10:27:00.374Z,97014.25
2022-08-11T10:29:51.972Z,97020.16
2022-08-11T10:32:57.997Z,97016.88
2022-08-11T10:35:30.422Z,97011.66
2022-08-11T10:38:06.863Z,97010.75
2022-08-11T10:40:40.625Z,97011.91
2022-08-11T10:43:14.080Z,97011.63
2022-08-11T10:46:18.598Z,97005.41
2022-08-11T10:48:58.046Z,97006.75
2022-08-11T10:51:50.747Z,97004.97
2022-08-11T10:54:41.075Z,96996.44
2022-08-11T10:57:37.736Z,96997.72
2022-08-11T11:00:08.551Z,96998.94
2022-08-11T11:02:36.906Z,96988.44
2022-08-11T11:05:14.158Z,96990.84
2022-08-11T11:07:55.946Z,96988.94
2022-08-11T11:10:24.306Z,96988.06
2022-08-11T11:13:15.366Z,96981.63
2022-08-11T11:16:06.359Z,96977.31
2022-08-11T11:18:38.279Z,96973.88
2022-08-11T11:21:09.405Z,96979.53
2022-08-11T11:23:47.530Z,96971.81
2022-08-11T11:26:38.369Z,96975.97
2022-08-11T11:29:31.355Z,96968.31
2022-08-11T11:32:18.722Z,96955.88
2022-08-11T11:35:23.811Z,96960.72
2022-08-11T11:38:04.595Z,96952.00
2022-08-11T11:40:35.430Z,96951.78
2022-08-11T11:43:05.207Z,96951.66
2022-08-11T11:45:33.865Z,96962.28
2022-08-11T11:48:03.071Z,96950.78
2022-08-11T11:50:35.081Z,96947.97
2022-08-11T11:53:06.998Z,96943.28
2022-08-11T11:55:37.263Z,96942.22
2022-08-11T11:58:23.982Z,96943.22
2022-08-11T12:01:12.392Z,96930.41
2022-08-11T12:03:41.402Z,96938.34
2022-08-11T12:06:14.174Z,96933.66
2022-08-11T12:08:44.003Z,96937.50
2022-08-11T12:11:28.529Z,96941.47
2022-08-11T12:14:00.294Z,96939.06
2022-08-11T12:16:32.773Z,96940.88
2022-08-11T12:19:07.467Z,96937.41
2022-08-11T12:21:37.708Z,96942.72
2022-08-11T12:24:29.278Z,96931.59
2022-08-11T12:27:18.283Z,96923.28
2022-08-11T12:29:54.553Z,96921.53
2022-08-11T12:32:26.748Z,96923.63
2022-08-11T12:34:57.838Z,96916.69
2022-08-11T12:37:31.192Z,96915.78
2022-08-11T12:40:43.757Z,96922.94
2022-08-11T12:43:37.195Z,96919.78
2022-08-11T12:46:11.114Z,96917.53
2022-08-11T12:49:04.329Z,96908.91
2022-08-11T12:52:12.483Z,96905.69
2022-08-11T12:54:59.674Z,96898.63
2022-08-11T12:57:51.199Z,96893.69
2022-08-11T13:00:39.234Z,96887.47
2022-08-11T13:03:28.843Z,96881.44
2022-08-11T13:05:59.275Z,96886.09
2022-08-11T13:08:30.226Z,96885.31
2022-08-11T13:11:19.348Z,96880.06
2022-08-11T13:13:53.650Z,96872.50
2022-08-11T13:16:30.681Z,96875.09
2022-08-11T13:19:01.766Z,96871.88
2022-08-11T13:21:31.063Z,96865.09
2022-08-11T13:24:03.144Z,96869.38
2022-08-11T13:26:47.191Z,96864.31
2022-08-11T13:29:20.487Z,96853.31
2022-08-11T13:31:53.424Z,96853.97
2022-08-11T13:34:24.337Z,96856.53
2022-08-11T13:36:55.198Z,96864.00
2022-08-11T13:39:25.056Z,96858.91
2022-08-11T13:41:56.735Z,96859.38
2022-08-11T13:44:29.769Z,96855.53
2022-08-11T13:47:04.297Z,96847.09
2022-08-11T13:49:34.698Z,96850.91
2022-08-11T13:52:03.921Z,96848.69
2022-08-11T13:54:36.108Z,96853.59
2022-08-11T13:57:13.420Z,96850.44
2022-08-11T13:59:52.245Z,96846.09
2022-08-11T14:02:30.274Z,96845.63
2022-08-11T14:05:04.129Z,96837.34
2022-08-11T14:07:39.934Z,96839.13
2022-08-11T14:10:11.830Z,96832.75
2022-08-11T14:13:01.639Z,96830.84
2022-08-11T14:15:35.161Z,96824.13
2022-08-11T14:18:10.246Z,96820.97
2022-08-11T14:21:00.640Z,96825.09
2022-08-11T14:23:33.782Z,96819.03
2022-08-11T14:26:20.616Z,96821.13
2022-08-11T14:28:49.511Z,96822.22
2022-08-11T14:31:18.200Z,96825.03
2022-08-11T14:33:59.798Z,96827.78
2022-08-11T14:36:33.946Z,96811.03
2022-08-11T14:39:08.245Z,96816.75
2022-08-11T14:42:07.673Z,96812.19
2022-08-11T14:45:02.101Z,96810.13
2022-08-11T14:47:34.736Z,96817.13
2022-08-11T14:50:10.917Z,96809.19
2022-08-11T14:52:50.465Z,96807.09
2022-08-11T14:55:37.512Z,96801.69
2022-08-11T14:58:06.542Z,96796.41
2022-08-11T15:00:42.517Z,96800.09
2022-08-11T15:03:15.456Z,96796.91
2022-08-11T15:05:56.829Z,96801.69
2022-08-11T15:08:51.157Z,96783.69
2022-08-11T15:11:40.787Z,96789.09
2022-08-11T15:14:11.749Z,96789.09
2022-08-11T15:17:03.381Z,96785.88
2022-08-11T15:19:41.082Z,96777.94
2022-08-11T15:22:29.316Z,96781.75
2022-08-11T15:24:59.924Z,96776.66
2022-08-11T15:27:48.912Z,96767.91
2022-08-11T15:30:35.643Z,96779.19
2022-08-11T15:33:25.992Z,96768.69
2022-08-11T15:36:14.596Z,96768.84
2022-08-11T15:38:55.489Z,96769.66
2022-08-11T15:41:58.769Z,96759.47
2022-08-11T15:45:05.708Z,96764.22
2022-08-11T15:47:47.156Z,96764.69
2022-08-11T15:50:21.849Z,96760.22
2022-08-11T15:52:57.697Z,96763.06
2022-08-11T15:55:29.880Z,96754.94
2022-08-11T15:58:17.727Z,96745.38
2022-08-11T16:01:08.886Z,96754.31
2022-08-11T16:04:07.891Z,96744.13
2022-08-11T16:06:47.795Z,96742.84
2022-08-11T16:09:24.627Z,96746.81
2022-08-11T16:11:58.362Z,96743.47
2022-08-11T16:14:46.186Z,96742.19
2022-08-11T16:17:17.450Z,96746.19
2022-08-11T16:19:47.828Z,96738.22
2022-08-11T16:22:28.421Z,96739.34
2022-08-11T16:27:04.891Z,96738.38
2022-08-11T16:27:51.587Z,96744.72
2022-08-11T16:30:19.822Z,96741.38
2022-08-11T16:32:53.055Z,96746.16
2022-08-11T16:35:42.939Z,96732.16
2022-08-11T16:38:31.683Z,96742.19
2022-08-11T16:41:06.187Z,96724.66
2022-08-11T16:44:00.597Z,96735.66
2022-08-11T16:46:47.672Z,96733.91
2022-08-11T16:49:21.984Z,96731.97
2022-08-11T16:51:50.085Z,96729.78
2022-08-11T16:54:18.416Z,96729.91
2022-08-11T16:56:50.118Z,96730.06
2022-08-11T16:59:24.128Z,96731.00
2022-08-11T17:01:55.806Z,96726.25
2022-08-11T17:04:55.227Z,96727.66
2022-08-11T17:07:54.949Z,96726.69
2022-08-11T17:10:51.615Z,96724.66
2022-08-11T17:13:29.199Z,96723.38
2022-08-11T17:16:11.737Z,96722.50
2022-08-11T17:18:55.323Z,96726.53
2022-08-11T17:21:29.819Z,96721.09
2022-08-11T17:24:09.045Z,96716.31
2022-08-11T17:27:04.999Z,96727.31
2022-08-11T17:29:53.713Z,96714.38
2022-08-11T17:32:55.996Z,96715.47
2022-08-11T17:35:33.660Z,96716.31
2022-08-11T17:38:07.746Z,96711.91
2022-08-11T17:40:39.656Z,96712.50
2022-08-11T17:43:27.337Z,96713.78
2022-08-11T17:46:15.026Z,96712.94
2022-08-11T17:48:48.229Z,96716.91
2022-08-11T17:51:34.658Z,96709.72
2022-08-11T17:54:24.943Z,96708.13
2022-08-11T17:57:21.000Z,96715.56
2022-08-11T17:59:56.849Z,96719.34
2022-08-11T18:02:48.233Z,96712.06
2022-08-11T18:05:20.717Z,96719.66
2022-08-11T18:08:12.501Z,96722.38
2022-08-11T18:11:00.760Z,96718.53
2022-08-11T18:13:50.145Z,96728.25
2022-08-11T18:16:36.889Z,96732.22
2022-08-11T18:19:22.996Z,96732.16
2022-08-11T18:22:15.549Z,96728.91
2022-08-11T18:25:08.864Z,96731.88
2022-08-11T18:27:57.106Z,96729.59
2022-08-11T18:30:43.780Z,96736.47
2022-08-11T18:36:41.671Z,96742.13
2022-08-11T18:39:31.991Z,96740.06
2022-08-11T18:42:29.664Z,96749.06
2022-08-11T18:45:20.063Z,96745.31
2022-08-11T18:48:11.530Z,96745.59
2022-08-11T18:51:31.066Z,96739.09
2022-08-11T18:54:10.454Z,96747.13
2022-08-11T18:56:58.589Z,96746.25
2022-08-11T18:59:47.107Z,96754.59
2022-08-11T19:02:49.427Z,96755.78
2022-08-11T19:06:32.205Z,96756.50
2022-08-11T19:08:49.886Z,96762.63
2022-08-11T19:11:42.636Z,96769.81
2022-08-11T19:14:33.493Z,96768.88
2022-08-11T19:17:43.442Z,96770.09
2022-08-11T19:20:32.202Z,96778.78
2022-08-11T19:23:20.786Z,96788.97
2022-08-11T19:26:07.790Z,96786.97
2022-08-11T19:28:55.720Z,96789.56
2022-08-11T19:31:45.212Z,96784.63
2022-08-11T19:34:33.169Z,96786.72
2022-08-11T19:37:24.000Z,96786.28
2022-08-11T19:40:12.763Z,96787.25
2022-08-11T19:43:01.615Z,96790.91
2022-08-11T19:45:52.784Z,96796.69
2022-08-11T19:48:43.050Z,96799.75
2022-08-11T19:51:29.700Z,96789.19
2022-08-11T19:54:16.878Z,96797.78
2022-08-11T19:57:04.481Z,96791.09
2022-08-11T19:59:52.397Z,96794.06
2022-08-11T20:02:38.461Z,96794.25
2022-08-11T20:05:27.761Z,96798.81
2022-08-11T20:08:16.839Z,96791.91
2022-08-11T20:11:06.809Z,96796.47
2022-08-11T20:13:53.971Z,96789.22
2022-08-11T20:16:42.134Z,96797.06
2022-08-11T20:19:55.031Z,96801.69
2022-08-11T20:22:37.103Z,96791.00
2022-08-11T20:25:25.293Z,96793.78
2022-08-11T20:28:12.209Z,96801.38
2022-08-11T20:30:59.609Z,96799.31
2022-08-11T20:33:45.355Z,96795.69
2022-08-11T20:36:33.684Z,96795.78
2022-08-11T20:39:22.907Z,96795.09
2022-08-11T20:42:10.053Z,96807.81
2022-08-11T20:44:57.989Z,96808.16
2022-08-11T20:47:59.735Z,96811.69
2022-08-11T20:50:47.619Z,96809.41
2022-08-11T20:53:39.163Z,96810.72
2022-08-11T20:56:30.005Z,96810.75
2022-08-11T21:02:25.751Z,96811.81
2022-08-11T21:05:15.854Z,96820.94
2022-08-11T21:08:09.783Z,96810.50
2022-08-11T21:11:00.762Z,96815.34
2022-08-11T21:13:53.886Z,96820.72
2022-08-11T21:16:47.544Z,96820.97
2022-08-11T21:20:00.605Z,96815.94
2022-08-11T21:22:59.350Z,96822.97
2022-08-11T21:25:59.241Z,96817.91
2022-08-11T21:28:48.567Z,96831.38
2022-08-11T21:31:36.890Z,96828.16
2022-08-11T21:34:25.035Z,96831.16
2022-08-11T21:37:11.924Z,96826.88
2022-08-11T21:39:58.779Z,96823.72
2022-08-11T21:42:46.365Z,96824.25
2022-08-11T21:45:34.564Z,96818.09
2022-08-11T21:48:21.096Z,96821.34
2022-08-11T21:51:06.792Z,96816.84
2022-08-11T21:53:53.040Z,96816.13
2022-08-11T21:56:40.290Z,96813.97
2022-08-11T21:59:26.540Z,96825.75
2022-08-11T22:02:14.460Z,96819.63
2022-08-11T22:05:01.472Z,96823.38
2022-08-11T22:07:47.859Z,96811.88
2022-08-11T22:10:40.928Z,96816.47
2022-08-11T22:13:30.893Z,96820.78
2022-08-11T22:16:17.458Z,96808.22
2022-08-11T22:19:05.960Z,96810.63
2022-08-11T22:22:01.540Z,96808.47
2022-08-11T22:24:50.480Z,96804.75
2022-08-11T22:27:36.634Z,96804.75
2022-08-11T22:30:24.294Z,96804.22
2022-08-11T22:33:10.778Z,96797.28
2022-08-11T22:35:59.904Z,96794.88
2022-08-11T22:38:46.515Z,96805.31
2022-08-11T22:41:32.840Z,96806.94
2022-08-11T22:44:18.424Z,96799.72
2022-08-11T22:47:05.283Z,96802.97
2022-08-11T22:49:57.429Z,96798.16
2022-08-11T22:52:48.687Z,96794.69
2022-08-11T22:55:35.876Z,96810.75
2022-08-11T22:58:22.561Z,96796.53
2022-08-11T23:01:08.685Z,96798.44
2022-08-11T23:03:54.991Z,96801.66
2022-08-11T23:06:41.024Z,96799.50
2022-08-11T23:09:29.399Z,96793.31
2022-08-11T23:12:16.452Z,96796.78
2022-08-11T23:15:03.753Z,96798.44
2022-08-11T23:17:50.962Z,96790.97
2022-08-11T23:20:52.880Z,96792.88
2022-08-11T23:23:41.806Z,96801.47
2022-08-11T23:26:30.043Z,96796.06
2022-08-11T23:29:17.202Z,96800.09
2022-08-11T23:32:05.843Z,96793.13
2022-08-11T23:35:03.643Z,96803.88
2022-08-11T23:37:51.330Z,96799.84
2022-08-11T23:40:37.331Z,96802.50
2022-08-11T23:43:25.212Z,96797.69
2022-08-11T23:46:10.790Z,96795.28
2022-08-11T23:48:57.958Z,96796.34
2022-08-11T23:51:45.804Z,96799.00
2022-08-11T23:54:37.153Z,96802.78
2022-08-11T23:57:24.201Z,96803.84
